Time;durP1;ratioP1;P1;durP2;ratioP2;P2;SDS_P1;SDS_P2;PMS_P1;PMS_P2;Temp;Humidity;BMP_temperature;BMP_pressure;BME280_temperature;BME280_humidity;BME280_pressure;Samples;Min_cycle;Max_cycle;Signal;HPM_P1;HPM_P2
2022/11/15 00:05:03;;;;;;;23.20;13.70;;;21.50;64.60;;;;;;215547;1273;25305;-50
2022/11/15 00:10:26;;;;;;;19.70;13.00;;;21.70;64.00;;;;;;215514;1297;26635;-49
2022/11/15 00:15:48;;;;;;;21.00;12.80;;;21.80;63.50;;;;;;215472;1276;22469;-50
2022/11/15 00:21:12;;;;;;;20.50;14.40;;;21.90;63.20;;;;;;215514;1297;25442;-49
2022/11/15 00:26:34;;;;;;;20.20;12.70;;;22.00;62.80;;;;;;215240;1283;25381;-51
2022/11/15 00:31:57;;;;;;;18.90;12.30;;;22.20;62.40;;;;;;215034;1300;25564;-48
2022/11/15 00:37:19;;;;;;;20.50;13.20;;;22.30;62.20;;;;;;215124;1278;22469;-50
2022/11/15 00:42:42;;;;;;;17.40;13.50;;;22.30;62.30;;;;;;215199;1280;23869;-51
2022/11/15 00:48:05;;;;;;;18.30;12.50;;;22.30;61.80;;;;;;215101;1276;25377;-50
2022/11/15 00:59:46;;;;;;;19.40;12.60;;;22.50;61.30;;;;;;215194;1277;23915;-49
2022/11/15 01:05:09;;;;;;;16.90;12.00;;;22.50;61.20;;;;;;215413;1297;25281;-48
2022/11/15 01:10:31;;;;;;;16.50;12.50;;;22.50;61.10;;;;;;215495;1292;26649;-47
2022/11/15 01:15:53;;;;;;;17.90;13.10;;;22.60;61.10;;;;;;215466;1276;23842;-50
2022/11/15 01:21:18;;;;;;;18.00;11.70;;;22.60;61.00;;;;;;215434;1275;26507;-49
2022/11/15 01:26:41;;;;;;;17.80;12.90;;;22.60;60.80;;;;;;215477;1283;23862;-51
2022/11/15 01:32:04;;;;;;;16.20;11.60;;;22.70;60.80;;;;;;215500;1298;24241;-50
2022/11/15 01:37:26;;;;;;;18.00;12.10;;;22.60;60.60;;;;;;215427;1269;25294;-51
2022/11/15 01:42:49;;;;;;;18.10;11.90;;;22.60;60.80;;;;;;215437;1276;25368;-51
2022/11/15 01:48:11;;;;;;;16.50;12.50;;;22.50;61.10;;;;;;215138;1269;24926;-52
2022/11/15 01:53:36;;;;;;;17.20;12.10;;;22.40;61.70;;;;;;215493;1276;25372;-51
2022/11/15 01:59:02;;;;;;;14.40;10.60;;;22.30;61.80;;;;;;215411;1277;22438;-47
2022/11/15 02:04:28;;;;;;;16.40;12.30;;;22.20;62.00;;;;;;215485;1297;25453;-48
2022/11/15 02:09:54;;;;;;;16.00;11.70;;;22.10;62.10;;;;;;215458;1293;25380;-48
2022/11/15 02:15:17;;;;;;;15.10;11.80;;;22.00;62.40;;;;;;215521;1275;25525;-52
2022/11/15 02:20:52;;;;;;;18.70;12.10;;;21.90;62.60;;;;;;215510;1283;25272;-50
2022/11/15 02:27:01;;;;;;;15.80;12.10;;;21.80;62.80;;;;;;215362;1276;25449;-50
2022/11/15 02:32:41;;;;;;;16.90;12.60;;;21.70;62.90;;;;;;215338;1269;25338;-49
2022/11/15 02:38:17;;;;;;;14.60;11.10;;;21.70;63.10;;;;;;215488;1297;24018;-49
2022/11/15 02:43:57;;;;;;;17.20;11.90;;;21.60;63.30;;;;;;215326;1275;22432;-48
2022/11/15 02:49:19;;;;;;;17.30;12.10;;;21.50;63.20;;;;;;215444;1292;25359;-47
2022/11/15 02:54:42;;;;;;;16.30;11.70;;;21.50;63.40;;;;;;215404;1276;25450;-51
2022/11/15 03:00:08;;;;;;;16.10;12.10;;;21.40;63.40;;;;;;215503;1272;23241;-50
2022/11/15 03:05:53;;;;;;;16.80;12.20;;;21.40;63.30;;;;;;215510;1283;26477;-53
2022/11/15 03:11:18;;;;;;;17.50;11.90;;;21.30;63.30;;;;;;215394;1294;23869;-47
2022/11/15 03:17:06;;;;;;;14.40;11.60;;;21.30;63.60;;;;;;215203;1276;25364;-50
2022/11/15 03:22:35;;;;;;;16.80;11.90;;;21.30;63.80;;;;;;215425;1297;25410;-49
2022/11/15 03:28:02;;;;;;;15.50;11.70;;;21.30;64.10;;;;;;215473;1276;23844;-50
2022/11/15 03:33:26;;;;;;;15.60;11.30;;;21.20;64.20;;;;;;215440;1276;25303;-50
2022/11/15 03:38:53;;;;;;;18.10;12.30;;;21.20;64.40;;;;;;215478;1269;25343;-49
2022/11/15 03:44:25;;;;;;;16.50;12.30;;;21.20;64.70;;;;;;215495;1283;25443;-49
2022/11/15 03:50:02;;;;;;;18.50;12.50;;;21.20;64.90;;;;;;215479;1275;25305;-50
2022/11/15 03:55:24;;;;;;;16.00;11.90;;;21.10;65.00;;;;;;215435;1297;24173;-50
2022/11/15 04:00:47;;;;;;;15.00;11.70;;;21.10;65.20;;;;;;215368;1276;25376;-50
2022/11/15 04:06:12;;;;;;;15.90;11.60;;;21.10;65.40;;;;;;215494;1295;23954;-47
2022/11/15 04:11:35;;;;;;;17.80;12.60;;;21.00;65.50;;;;;;215247;1276;22477;-47
2022/11/15 04:16:58;;;;;;;16.80;12.70;;;21.00;65.70;;;;;;215426;1276;26557;-50
2022/11/15 04:28:03;;;;;;;16.30;13.10;;;21.00;65.90;;;;;;215497;1272;24299;-50
2022/11/15 04:33:26;;;;;;;17.90;13.10;;;20.90;66.20;;;;;;215483;1276;26531;-50
2022/11/15 04:38:48;;;;;;;15.60;12.50;;;20.90;66.00;;;;;;215381;1276;25912;-47
2022/11/15 04:44:11;;;;;;;16.90;12.50;;;20.90;65.80;;;;;;215418;1297;23855;-49
2022/11/15 04:49:33;;;;;;;15.70;12.50;;;20.90;65.80;;;;;;215463;1276;22555;-50
2022/11/15 04:54:55;;;;;;;17.60;12.40;;;20.90;65.60;;;;;;215342;1269;25366;-50
2022/11/15 05:00:18;;;;;;;15.00;11.40;;;20.80;65.50;;;;;;215470;1282;24422;-51
2022/11/15 05:05:41;;;;;;;15.30;11.10;;;20.70;65.30;;;;;;215499;1269;25365;-49
2022/11/15 05:11:04;;;;;;;13.80;11.10;;;20.70;65.40;;;;;;215513;1269;25374;-51
2022/11/15 05:16:29;;;;;;;14.40;11.90;;;20.70;65.40;;;;;;215495;1280;25871;-49
2022/11/15 05:21:52;;;;;;;19.60;11.60;;;20.60;65.40;;;;;;215350;1277;25426;-49
2022/11/15 05:27:15;;;;;;;15.90;12.20;;;20.60;65.60;;;;;;215323;1268;23122;-49
2022/11/15 05:32:37;;;;;;;18.20;12.50;;;20.60;65.40;;;;;;215411;1285;24323;-50
2022/11/15 05:38:00;;;;;;;14.60;11.30;;;20.60;65.50;;;;;;215416;1272;25453;-49
2022/11/15 05:43:23;;;;;;;14.10;10.00;;;20.80;65.50;;;;;;215579;1269;25481;-47
2022/11/15 05:48:52;;;;;;;13.50;10.00;;;21.20;64.10;;;;;;215389;1276;25566;-48
2022/11/15 05:54:16;;;;;;;14.00;10.40;;;21.50;63.40;;;;;;215478;1276;25313;-51
2022/11/15 05:59:40;;;;;;;13.30;10.10;;;21.70;62.50;;;;;;215355;1269;24363;-50
2022/11/15 06:05:03;;;;;;;13.40;10.00;;;21.90;62.40;;;;;;215401;1292;22441;-49
2022/11/15 06:10:29;;;;;;;13.40;10.50;;;22.00;61.90;;;;;;215365;1295;24243;-50
2022/11/15 06:15:58;;;;;;;14.80;10.30;;;22.10;61.40;;;;;;215510;1276;24194;-50
2022/11/15 06:21:27;;;;;;;13.70;10.40;;;22.20;61.40;;;;;;215304;1272;23890;-49
2022/11/15 06:26:57;;;;;;;13.10;9.70;;;22.20;60.90;;;;;;215485;1281;24228;-50
2022/11/15 06:32:22;;;;;;;12.90;10.20;;;22.30;60.80;;;;;;215457;1269;24228;-51
2022/11/15 06:37:45;;;;;;;14.10;10.00;;;22.30;60.60;;;;;;215483;1292;23860;-49
2022/11/15 06:43:08;;;;;;;17.40;11.30;;;22.40;60.50;;;;;;215579;1276;24256;-49
2022/11/15 06:48:32;;;;;;;13.80;10.10;;;22.40;60.70;;;;;;215249;1276;22535;-47
2022/11/15 06:53:55;;;;;;;15.00;9.40;;;22.50;61.40;;;;;;215328;1269;25455;-48
2022/11/15 06:59:17;;;;;;;15.70;11.50;;;22.40;60.90;;;;;;215248;1276;26746;-50
2022/11/15 07:04:39;;;;;;;16.60;10.70;;;22.30;61.40;;;;;;215620;1273;27638;-50
2022/11/15 07:10:06;;;;;;;16.30;9.50;;;22.30;61.80;;;;;;215492;1290;23831;-55
2022/11/15 07:15:31;;;;;;;15.80;9.70;;;22.30;61.80;;;;;;215344;1276;26614;-50
2022/11/15 07:21:10;;;;;;;16.10;9.40;;;22.30;61.90;;;;;;215202;1282;24736;-49
2022/11/15 07:26:47;;;;;;;18.90;10.50;;;22.20;62.20;;;;;;215567;1297;25452;-51
2022/11/15 07:32:13;;;;;;;14.80;10.50;;;22.30;63.90;;;;;;215455;1269;24224;-52
2022/11/15 07:37:39;;;;;;;19.00;10.30;;;22.20;62.60;;;;;;215437;1283;25354;-50
2022/11/15 07:43:06;;;;;;;21.10;10.20;;;22.10;63.10;;;;;;215374;1277;22830;-49
2022/11/15 07:48:30;;;;;;;17.30;9.60;;;22.00;63.50;;;;;;215351;1272;23852;-48
2022/11/15 07:54:04;;;;;;;16.70;10.20;;;22.00;63.70;;;;;;215382;1276;23909;-47
2022/11/15 07:59:38;;;;;;;20.40;9.70;;;21.80;63.90;;;;;;215266;1276;25481;-53
2022/11/15 08:05:02;;;;;;;20.80;10.20;;;21.90;63.50;;;;;;215211;1272;22647;-53
2022/11/15 08:10:25;;;;;;;28.30;11.30;;;21.90;63.30;;;;;;215362;1276;24425;-53
2022/11/15 08:15:51;;;;;;;21.90;10.10;;;21.80;63.30;;;;;;215383;1283;25376;-53
2022/11/15 08:21:20;;;;;;;16.60;10.90;;;21.80;63.70;;;;;;215602;1277;24223;-53
2022/11/15 08:26:47;;;;;;;19.90;9.50;;;21.70;64.10;;;;;;215519;1281;25246;-53
2022/11/15 08:32:18;;;;;;;25.30;11.10;;;21.70;64.30;;;;;;215451;1296;22751;-53
2022/11/15 08:37:52;;;;;;;18.90;10.60;;;21.70;63.90;;;;;;215632;1275;22521;-55
2022/11/15 08:43:16;;;;;;;19.70;10.70;;;21.70;63.90;;;;;;215369;1292;22565;-52
2022/11/15 08:48:40;;;;;;;25.70;10.70;;;21.70;63.80;;;;;;215619;1289;23611;-54
2022/11/15 08:54:03;;;;;;;17.50;10.20;;;21.70;63.60;;;;;;215494;1276;22474;-54
2022/11/15 08:59:26;;;;;;;19.80;11.40;;;21.80;63.70;;;;;;215437;1297;22596;-51
2022/11/15 09:04:49;;;;;;;18.40;11.00;;;21.80;63.60;;;;;;215256;1283;25405;-53
2022/11/15 09:10:12;;;;;;;19.40;11.90;;;21.80;63.50;;;;;;215467;1273;25268;-51
2022/11/15 09:15:34;;;;;;;21.50;12.40;;;21.80;63.50;;;;;;215507;1283;26598;-52
2022/11/15 09:20:58;;;;;;;26.70;14.60;;;21.80;63.20;;;;;;215522;1297;26706;-54
2022/11/15 09:26:23;;;;;;;25.00;13.70;;;21.90;66.00;;;;;;215498;1282;23269;-52
2022/11/15 09:31:54;;;;;;;23.40;14.50;;;21.90;66.20;;;;;;215395;1295;23879;-53
2022/11/15 09:37:18;;;;;;;24.70;15.30;;;21.90;65.10;;;;;;215427;1276;24033;-51
2022/11/15 09:43:15;;;;;;;20.30;14.60;;;22.00;64.80;;;;;;215487;1280;22468;-53
2022/11/15 09:48:47;;;;;;;22.80;13.50;;;22.00;64.40;;;;;;215385;1293;23834;-53
2022/11/15 09:54:28;;;;;;;21.70;14.70;;;22.00;64.80;;;;;;215271;1279;25442;-51
2022/11/15 10:00:00;;;;;;;23.60;13.40;;;22.00;64.70;;;;;;215534;1277;25541;-53
2022/11/15 10:05:26;;;;;;;24.90;14.80;;;22.00;65.00;;;;;;215572;1298;25372;-55
2022/11/15 10:10:39;;;;;;;25.90;15.30;;;22.00;65.10;;;;;;215518;1280;25584;-56
2022/11/15 10:15:47;;;;;;;23.10;15.00;;;22.10;65.10;;;;;;215641;1273;25543;-57
2022/11/15 10:20:59;;;;;;;24.20;15.30;;;22.20;65.00;;;;;;215592;1277;22462;-55
2022/11/15 10:26:10;;;;;;;23.60;14.50;;;22.30;65.40;;;;;;215558;1277;131124;-56
2022/11/15 10:31:25;;;;;;;;;;;22.30;65.30;;;;;;215630;1273;24224;-56
2022/11/15 10:36:29;;;;;;;19.90;14.30;;;22.30;65.30;;;;;;215305;1280;22698;-57
2022/11/15 10:41:37;;;;;;;20.20;15.30;;;22.40;65.10;;;;;;215512;1280;22571;-57
2022/11/15 10:46:48;;;;;;;22.20;14.10;;;22.40;65.00;;;;;;215449;1297;22534;-56
2022/11/15 10:51:56;;;;;;;19.50;14.00;;;22.40;64.90;;;;;;215711;1276;25019;-58
2022/11/15 10:57:07;;;;;;;19.40;13.30;;;22.50;65.50;;;;;;215655;1284;22522;-57
2022/11/15 11:02:32;;;;;;;22.30;14.90;;;22.40;65.50;;;;;;215684;1283;22569;-56
2022/11/15 11:07:36;;;;;;;19.30;14.10;;;22.40;64.90;;;;;;215742;1280;24244;-57
2022/11/15 11:12:43;;;;;;;20.40;13.50;;;22.50;64.90;;;;;;215620;1272;22586;-56
2022/11/15 11:17:56;;;;;;;20.40;13.80;;;22.50;64.90;;;;;;215635;1295;25293;-57
2022/11/15 11:23:33;;;;;;;20.00;14.90;;;22.50;65.20;;;;;;215724;1280;22501;-57
2022/11/15 11:28:56;;;;;;;18.50;13.20;;;22.60;65.30;;;;;;215680;1274;23853;-56
2022/11/15 11:34:04;;;;;;;19.10;13.70;;;22.60;65.10;;;;;;215667;1276;23854;-57
2022/11/15 11:39:44;;;;;;;19.50;14.20;;;22.60;65.10;;;;;;215626;1286;25830;-58
2022/11/15 11:45:03;;;;;;;19.70;13.40;;;22.60;65.10;;;;;;215751;1283;25407;-57
2022/11/15 11:50:20;;;;;;;20.30;13.70;;;22.60;65.30;;;;;;215759;1277;23363;-57
2022/11/15 11:55:40;;;;;;;16.00;12.30;;;22.60;65.20;;;;;;215689;1297;25294;-57
2022/11/15 12:00:56;;;;;;;21.90;14.10;;;22.60;65.10;;;;;;215771;1280;24317;-57
2022/11/15 12:06:02;;;;;;;21.50;13.70;;;22.60;65.10;;;;;;215599;1285;24250;-56
2022/11/15 12:11:22;;;;;;;17.30;13.50;;;22.60;65.00;;;;;;215686;1292;22466;-57
2022/11/15 12:16:31;;;;;;;18.50;13.00;;;22.60;65.40;;;;;;215734;1272;25665;-57
2022/11/15 12:21:39;;;;;;;18.10;12.80;;;22.60;64.90;;;;;;215780;1282;24246;-58
2022/11/15 12:26:51;;;;;;;17.90;13.00;;;22.60;64.90;;;;;;215703;1274;22510;-58
2022/11/15 12:31:59;;;;;;;18.90;13.10;;;22.60;64.70;;;;;;215680;1273;23911;-58
2022/11/15 12:37:41;;;;;;;17.10;12.90;;;22.60;64.70;;;;;;215821;1280;25488;-57
2022/11/15 12:43:25;;;;;;;22.60;11.90;;;22.60;64.70;;;;;;215641;1286;22470;-59
2022/11/15 12:48:35;;;;;;;16.90;12.70;;;22.60;64.60;;;;;;215662;1272;22575;-57
2022/11/15 12:53:38;;;;;;;17.90;12.50;;;22.60;64.60;;;;;;215594;1272;22454;-57
2022/11/15 12:58:48;;;;;;;17.90;11.80;;;22.60;64.50;;;;;;215731;1280;22496;-58
2022/11/15 13:04:14;;;;;;;16.40;12.00;;;22.60;64.50;;;;;;215652;1274;27728;-57
2022/11/15 13:09:31;;;;;;;15.90;11.60;;;22.60;64.60;;;;;;215640;1282;24229;-57
2022/11/15 13:14:45;;;;;;;14.20;11.60;;;22.60;64.60;;;;;;215676;1274;23873;-57
2022/11/15 13:19:53;;;;;;;16.80;12.40;;;22.60;64.50;;;;;;215561;1278;22480;-56
2022/11/15 13:25:01;;;;;;;14.30;10.90;;;22.60;64.60;;;;;;215712;1285;24225;-57
2022/11/15 13:30:18;;;;;;;15.00;11.30;;;22.50;64.60;;;;;;215709;1272;25205;-56
2022/11/15 13:35:25;;;;;;;15.20;12.30;;;22.50;64.60;;;;;;215723;1286;22528;-58
2022/11/15 13:40:36;;;;;;;16.30;11.70;;;22.40;64.70;;;;;;215634;1279;22854;-56
2022/11/15 13:45:43;;;;;;;15.30;10.90;;;22.40;65.40;;;;;;215676;1274;24386;-55
2022/11/15 13:50:54;;;;;;;15.60;11.20;;;22.30;64.90;;;;;;215689;1274;25177;-57
2022/11/15 13:56:03;;;;;;;17.20;12.00;;;22.30;65.00;;;;;;215720;1275;23848;-56
2022/11/15 14:01:19;;;;;;;13.60;10.80;;;22.20;65.00;;;;;;215613;1276;23861;-57
2022/11/15 14:06:32;;;;;;;15.70;11.90;;;22.20;65.10;;;;;;215629;1297;25568;-58
2022/11/15 14:11:49;;;;;;;13.20;11.00;;;22.10;65.30;;;;;;215642;1273;22529;-57
2022/11/15 14:17:04;;;;;;;12.90;10.60;;;22.00;65.70;;;;;;215587;1273;22468;-57
2022/11/15 14:22:31;;;;;;;14.00;10.90;;;22.00;65.90;;;;;;215677;1292;24247;-56
2022/11/15 14:28:15;;;;;;;13.70;10.90;;;22.00;65.50;;;;;;215577;1280;22691;-56
2022/11/15 14:33:41;;;;;;;13.60;10.70;;;21.90;65.50;;;;;;215594;1280;24015;-56
2022/11/15 14:39:01;;;;;;;12.80;10.30;;;21.90;65.50;;;;;;215535;1283;22514;-55
2022/11/15 14:44:11;;;;;;;13.30;9.70;;;21.90;65.60;;;;;;215628;1273;22466;-56
2022/11/15 14:49:25;;;;;;;14.10;10.70;;;21.80;65.90;;;;;;215599;1275;24400;-57
2022/11/15 14:54:34;;;;;;;14.80;10.80;;;21.80;65.70;;;;;;215687;1290;22462;-57
2022/11/15 14:59:38;;;;;;;13.10;10.70;;;21.70;65.60;;;;;;215731;1283;23943;-56
2022/11/15 15:04:52;;;;;;;13.70;10.50;;;21.70;65.70;;;;;;215747;1291;23989;-55
2022/11/15 15:10:04;;;;;;;15.70;10.90;;;21.60;65.70;;;;;;215567;1282;24246;-56
2022/11/15 15:15:40;;;;;;;15.10;9.90;;;21.60;65.80;;;;;;215597;1286;27615;-54
2022/11/15 15:20:53;;;;;;;15.70;10.50;;;21.60;65.90;;;;;;215844;1276;22501;-55
2022/11/15 15:25:58;;;;;;;12.90;11.00;;;21.60;66.30;;;;;;215707;1276;22561;-56
2022/11/15 15:31:11;;;;;;;12.50;10.00;;;21.50;65.90;;;;;;215471;1276;22569;-56
2022/11/15 15:36:34;;;;;;;13.30;10.50;;;21.50;65.90;;;;;;215807;1274;22463;-56
2022/11/15 15:41:45;;;;;;;12.90;10.40;;;21.50;66.00;;;;;;215720;1298;23897;-55
2022/11/15 15:47:20;;;;;;;17.10;11.30;;;21.40;66.10;;;;;;215579;1272;22466;-55
2022/11/15 15:52:24;;;;;;;13.70;10.80;;;21.40;66.10;;;;;;215563;1277;25370;-55
2022/11/15 15:57:45;;;;;;;16.70;10.70;;;21.40;66.10;;;;;;215561;1286;25542;-55
2022/11/15 16:02:54;;;;;;;14.10;11.00;;;21.40;66.40;;;;;;215684;1280;25893;-54
2022/11/15 16:08:02;;;;;;;13.10;10.50;;;21.30;66.00;;;;;;215642;1276;22475;-57
2022/11/15 16:13:07;;;;;;;17.40;11.10;;;21.30;65.60;;;;;;215445;1266;25282;-57
2022/11/15 16:18:20;;;;;;;15.50;10.80;;;21.40;66.00;;;;;;215310;1273;27414;-55
2022/11/15 16:23:27;;;;;;;16.00;10.80;;;21.30;66.00;;;;;;215489;1275;22582;-56
2022/11/15 16:28:37;;;;;;;13.80;11.10;;;21.30;66.20;;;;;;215416;1279;22482;-56
2022/11/15 16:33:49;;;;;;;17.50;11.50;;;21.30;66.50;;;;;;215435;1283;24274;-55
2022/11/15 16:39:18;;;;;;;17.40;10.70;;;21.30;67.40;;;;;;215475;1266;24336;-55
2022/11/15 16:44:23;;;;;;;16.90;11.80;;;21.30;67.70;;;;;;215525;1274;24243;-55
2022/11/15 16:49:37;;;;;;;17.70;10.90;;;21.30;68.80;;;;;;215633;1281;25348;-56
2022/11/15 16:55:01;;;;;;;15.20;10.80;;;21.20;69.10;;;;;;215286;1282;25291;-55
2022/11/15 17:00:11;;;;;;;25.50;11.50;;;21.20;68.90;;;;;;215348;1266;23886;-57
2022/11/15 17:05:27;;;;;;;22.10;12.60;;;21.20;68.80;;;;;;215517;1274;22696;-56
2022/11/15 17:10:43;;;;;;;18.60;11.80;;;21.20;69.10;;;;;;215442;1274;22460;-57
2022/11/15 17:16:20;;;;;;;24.50;12.50;;;21.20;69.40;;;;;;215553;1279;24243;-56
2022/11/15 17:21:51;;;;;;;21.10;13.30;;;21.20;70.20;;;;;;215722;1274;26572;-55
2022/11/15 17:27:00;;;;;;;23.20;13.20;;;21.20;70.30;;;;;;215535;1281;24005;-56
2022/11/15 17:32:09;;;;;;;20.30;14.20;;;21.20;70.00;;;;;;215727;1277;22498;-56
2022/11/15 17:37:23;;;;;;;23.40;14.40;;;21.10;70.30;;;;;;215684;1274;25512;-57
2022/11/15 17:42:40;;;;;;;26.30;15.20;;;21.20;69.40;;;;;;215298;1277;25499;-57
2022/11/15 17:47:46;;;;;;;;;;;21.20;69.30;;;;;;215717;1279;24390;-56
2022/11/15 17:52:54;;;;;;;25.20;16.10;;;21.20;70.10;;;;;;215682;1274;25518;-57
2022/11/15 17:58:08;;;;;;;26.60;16.50;;;21.20;70.80;;;;;;215526;1283;22466;-57
2022/11/15 18:03:21;;;;;;;27.40;16.70;;;21.20;70.70;;;;;;215608;1288;22545;-56
2022/11/15 18:08:34;;;;;;;29.00;16.20;;;21.20;70.40;;;;;;215345;1274;23855;-55
2022/11/15 18:13:45;;;;;;;27.10;15.10;;;21.10;70.20;;;;;;215571;1274;25515;-57
2022/11/15 18:18:54;;;;;;;30.60;16.00;;;21.10;70.00;;;;;;215671;1266;22457;-56
2022/11/15 18:24:00;;;;;;;23.30;15.80;;;21.20;69.80;;;;;;215585;1282;22460;-56
2022/11/15 18:29:04;;;;;;;27.60;16.40;;;21.10;70.10;;;;;;215612;1283;23415;-56
2022/11/15 18:34:12;;;;;;;34.30;17.30;;;21.10;69.70;;;;;;215505;1274;26537;-55
2022/11/15 18:39:23;;;;;;;25.80;17.10;;;21.20;69.70;;;;;;215708;1275;22964;-56
2022/11/15 18:44:45;;;;;;;27.70;17.80;;;21.10;70.50;;;;;;215566;1283;25367;-56
2022/11/15 18:50:05;;;;;;;;;;;;;;;;;;;;;
2022/11/15 18:55:23;;;;;;;32.70;18.90;;;21.00;70.50;;;;;;215440;1269;22462;-55
2022/11/15 19:00:40;;;;;;;32.60;17.70;;;21.10;73.90;;;;;;215738;1274;23193;-55
2022/11/15 19:06:04;;;;;;;41.60;18.50;;;21.10;74.00;;;;;;215176;1274;23844;-54
2022/11/15 19:11:20;;;;;;;31.90;17.10;;;21.10;73.30;;;;;;215666;1273;22510;-53
2022/11/15 19:16:26;;;;;;;34.50;18.90;;;21.00;72.80;;;;;;215608;1274;24021;-53
2022/11/15 19:21:42;;;;;;;30.80;17.60;;;21.00;72.90;;;;;;215621;1282;26019;-54
2022/11/15 19:26:46;;;;;;;36.40;17.50;;;21.00;72.60;;;;;;215551;1274;23866;-53
2022/11/15 19:32:04;;;;;;;33.90;18.40;;;20.90;72.50;;;;;;215543;1282;25388;-54
2022/11/15 19:37:21;;;;;;;33.70;19.60;;;20.90;72.70;;;;;;215468;1276;24309;-53
2022/11/15 19:42:31;;;;;;;32.20;19.40;;;20.90;72.40;;;;;;215653;1283;24212;-53
2022/11/15 19:47:41;;;;;;;30.90;19.40;;;20.90;71.90;;;;;;215552;1266;25430;-54
2022/11/15 19:52:47;;;;;;;35.40;19.20;;;20.90;71.70;;;;;;215416;1276;25466;-53
2022/11/15 19:57:56;;;;;;;30.00;18.80;;;21.00;72.10;;;;;;215594;1274;23872;-60
2022/11/15 20:03:07;;;;;;;32.10;21.00;;;20.90;71.90;;;;;;215402;1283;22571;-54
2022/11/15 20:08:13;;;;;;;34.90;21.30;;;20.90;72.60;;;;;;215638;1278;24224;-55
2022/11/15 20:13:21;;;;;;;41.50;20.00;;;20.90;72.10;;;;;;215432;1273;26700;-55
2022/11/15 20:18:29;;;;;;;41.60;20.90;;;21.00;71.80;;;;;;215416;1275;25422;-53
2022/11/15 20:23:35;;;;;;;48.10;22.10;;;20.90;72.00;;;;;;215685;1274;26599;-54
2022/11/15 20:28:41;;;;;;;43.40;22.60;;;20.90;72.60;;;;;;215675;1267;23005;-57
2022/11/15 20:33:54;;;;;;;43.20;23.10;;;21.00;72.50;;;;;;215451;1297;25837;-56
2022/11/15 20:39:12;;;;;;;41.10;22.70;;;20.90;72.40;;;;;;215386;1266;23843;-58
2022/11/15 20:44:24;;;;;;;50.60;23.10;;;20.90;72.50;;;;;;215593;1274;22851;-56
2022/11/15 20:49:33;;;;;;;37.10;22.00;;;20.90;71.60;;;;;;215587;1274;25235;-56
2022/11/15 20:54:49;;;;;;;40.80;22.00;;;20.90;71.80;;;;;;215479;1274;26833;-58
2022/11/15 20:59:56;;;;;;;36.50;22.00;;;20.90;72.20;;;;;;215647;1277;25551;-57
2022/11/15 21:05:13;;;;;;;32.20;21.00;;;20.90;72.50;;;;;;215491;1287;22456;-57
2022/11/15 21:16:16;;;;;;;;;;;;;;;;;;;;;
2022/11/15 21:21:29;;;;;;;34.50;21.00;;;20.90;73.10;;;;;;215464;1283;22595;-56
2022/11/15 21:26:35;;;;;;;35.50;20.40;;;20.80;72.80;;;;;;215547;1267;22463;-56
2022/11/15 21:31:39;;;;;;;32.60;19.50;;;20.80;72.50;;;;;;215509;1274;23481;-59
2022/11/15 21:36:56;;;;;;;31.80;21.50;;;20.80;72.90;;;;;;215441;1266;22477;-56
2022/11/15 21:42:01;;;;;;;35.60;20.70;;;20.70;72.90;;;;;;215530;1274;22692;-57
2022/11/15 21:47:10;;;;;;;35.00;20.00;;;20.60;73.10;;;;;;215631;1273;22565;-58
2022/11/15 21:52:14;;;;;;;32.70;18.50;;;20.70;74.00;;;;;;215431;1283;23786;-57
2022/11/15 21:57:22;;;;;;;33.00;20.40;;;20.80;73.70;;;;;;215667;1269;22881;-57
2022/11/15 22:08:51;;;;;;;30.40;18.00;;;20.60;73.40;;;;;;215585;1276;25314;-57
2022/11/15 22:13:55;;;;;;;30.80;18.40;;;20.60;73.70;;;;;;215420;1274;22473;-58
2022/11/15 22:19:07;;;;;;;28.30;18.80;;;20.50;73.80;;;;;;215477;1279;24279;-57
2022/11/15 22:24:17;;;;;;;30.60;18.10;;;20.50;73.70;;;;;;215373;1267;126222;-57
2022/11/15 22:29:21;;;;;;;30.70;18.20;;;20.50;74.10;;;;;;215591;1275;22725;-57
2022/11/15 22:34:28;;;;;;;29.50;18.20;;;20.50;74.00;;;;;;215612;1297;25372;-57
2022/11/15 22:39:40;;;;;;;31.70;18.80;;;20.40;74.10;;;;;;215430;1283;23645;-56
2022/11/15 22:44:45;;;;;;;28.30;18.80;;;20.80;73.60;;;;;;215827;1266;22921;-57
2022/11/15 22:49:55;;;;;;;26.30;17.90;;;21.20;72.70;;;;;;215744;1284;22589;-58
2022/11/15 22:55:01;;;;;;;26.80;18.00;;;21.50;71.40;;;;;;215346;1282;22802;-58
2022/11/15 23:00:19;;;;;;;25.70;18.30;;;21.70;70.70;;;;;;215473;1273;24278;-58
2022/11/15 23:05:24;;;;;;;25.30;17.20;;;21.90;70.20;;;;;;215286;1278;25316;-58
2022/11/15 23:27:08;;;;;;;22.80;16.10;;;22.30;68.50;;;;;;215322;1276;22453;-58
2022/11/15 23:37:39;;;;;;;27.30;16.60;;;22.40;69.10;;;;;;215737;1276;25380;-57
2022/11/15 23:42:45;;;;;;;24.40;16.70;;;22.40;69.40;;;;;;215809;1280;22463;-58
2022/11/15 23:47:57;;;;;;;23.20;16.80;;;22.50;69.50;;;;;;215714;1272;24902;-58
2022/11/15 23:53:04;;;;;;;23.40;16.90;;;22.60;69.00;;;;;;215570;1274;24804;-57
2022/11/15 23:58:10;;;;;;;22.00;15.40;;;22.60;68.70;;;;;;215570;1297;24339;-57
